Time;durP1;ratioP1;P1;durP2;ratioP2;P2;SDS_P1;SDS_P2;PMS_P1;PMS_P2;Temp;Humidity;BMP_temperature;BMP_pressure;BME280_temperature;BME280_humidity;BME280_pressure;Samples;Min_cycle;Max_cycle;Signal;HPM_P1;HPM_P2
2023/12/30 00:01:21;;;;;;;;;;;7.40;99.90;;;;;;5107556;27;19927;-79
2023/12/30 00:03:47;;;;;;;;;;;7.30;99.90;;;;;;5088922;27;19932;-80
2023/12/30 00:06:12;;;;;;;;;;;7.40;99.90;;;;;;5097878;27;20200;-79
2023/12/30 00:08:44;;;;;;;;;;;7.30;99.90;;;;;;5126534;27;19953;-80
2023/12/30 00:11:10;;;;;;;;;;;7.30;99.90;;;;;;5106958;27;19931;-79
2023/12/30 00:13:36;;;;;;;;;;;7.40;99.90;;;;;;5103053;27;19979;-79
2023/12/30 00:16:02;;;;;;;;;;;7.30;99.90;;;;;;5101757;27;19932;-79
2023/12/30 00:18:28;;;;;;;;;;;7.30;99.90;;;;;;5096302;27;19934;-80
2023/12/30 00:20:54;;;;;;;;;;;7.40;99.90;;;;;;5094841;27;19948;-80
2023/12/30 00:23:20;;;;;;;;;;;7.40;99.90;;;;;;5128044;27;19928;-80
2023/12/30 00:25:46;;;;;;;;;;;7.40;99.90;;;;;;5108825;27;21749;-79
2023/12/30 00:28:12;;;;;;;;;;;7.40;99.90;;;;;;5110004;27;19985;-79
2023/12/30 00:30:38;;;;;;;;;;;7.30;99.90;;;;;;5089671;27;20485;-79
2023/12/30 00:33:04;;;;;;;;;;;7.30;99.90;;;;;;5082616;27;20415;-79
2023/12/30 00:35:29;;;;;;;;;;;7.40;99.90;;;;;;5111584;27;19923;-80
2023/12/30 00:37:55;;;;;;;;;;;7.40;99.90;;;;;;5090331;27;19927;-82
2023/12/30 00:40:20;;;;;;;;;;;7.30;99.90;;;;;;5090709;27;20323;-79
2023/12/30 00:42:46;;;;;;;;;;;7.40;99.90;;;;;;5107307;27;20415;-82
2023/12/30 00:45:12;;;;;;;;;;;7.30;99.90;;;;;;5083012;27;19936;-79
2023/12/30 00:47:37;;;;;;;;;;;7.30;99.90;;;;;;5108514;27;21585;-79
2023/12/30 00:50:04;;;;;;;;;;;6.30;99.90;;;;;;5092178;27;20196;-79
2023/12/30 00:52:29;;;;;;;;;;;7.40;99.90;;;;;;5117028;27;19935;-82
2023/12/30 00:54:55;;;;;;;;;;;7.40;99.90;;;;;;5098955;27;19923;-83
2023/12/30 00:57:20;;;;;;;;;;;7.40;99.90;;;;;;5105231;27;19927;-81
2023/12/30 00:59:46;;;;;;;;;;;7.40;99.90;;;;;;5108421;27;19987;-81
2023/12/30 01:02:12;;;;;;;;;;;7.40;99.90;;;;;;5099434;27;20452;-82
2023/12/30 01:04:37;;;;;;;;;;;7.50;99.90;;;;;;5086417;27;19927;-79
2023/12/30 01:07:03;;;;;;;;;;;7.40;99.90;;;;;;5119536;27;19931;-82
2023/12/30 01:09:29;;;;;;;;;;;7.40;99.90;;;;;;5105441;27;19931;-78
2023/12/30 01:11:54;;;;;;;;;;;7.50;99.90;;;;;;5097106;27;19923;-80
2023/12/30 01:14:23;;;;;;;;;;;7.50;99.90;;;;;;5121373;27;19927;-80
2023/12/30 01:16:49;;;;;;;;;;;7.50;99.90;;;;;;5096212;27;20406;-81
2023/12/30 01:19:14;;;;;;;;;;;7.60;99.90;;;;;;5096807;27;19943;-80
2023/12/30 01:21:40;;;;;;;;;;;7.50;99.90;;;;;;5103244;27;20809;-81
2023/12/30 01:24:06;;;;;;;;;;;7.50;99.90;;;;;;5109839;27;20936;-80
2023/12/30 01:26:31;;;;;;;;;;;7.50;99.90;;;;;;5102652;27;19924;-82
2023/12/30 01:28:57;;;;;;;;;;;7.50;99.90;;;;;;5108353;27;20392;-80
2023/12/30 01:31:23;;;;;;;;;;;7.50;99.90;;;;;;5100159;27;20018;-81
2023/12/30 01:33:48;;;;;;;;;;;7.50;99.90;;;;;;5089776;27;19923;-81
2023/12/30 01:36:14;;;;;;;;;;;7.50;99.90;;;;;;5100424;27;20719;-79
2023/12/30 01:38:41;;;;;;;;;;;7.50;99.90;;;;;;5103752;27;19927;-80
2023/12/30 01:41:07;;;;;;;;;;;7.50;99.90;;;;;;5080515;27;20682;-78
2023/12/30 01:43:33;;;;;;;;;;;7.50;99.90;;;;;;5077921;27;19927;-80
2023/12/30 01:46:03;;;;;;;;;;;7.50;99.90;;;;;;5107212;27;19927;-80
2023/12/30 01:48:29;;;;;;;;;;;7.50;99.90;;;;;;5114349;27;21778;-79
2023/12/30 01:50:57;;;;;;;;;;;7.50;99.90;;;;;;5105484;27;19934;-79
2023/12/30 01:53:23;;;;;;;;;;;7.50;99.90;;;;;;5106940;27;19931;-80
2023/12/30 01:55:49;;;;;;;;;;;7.50;99.90;;;;;;5091640;27;19931;-80
2023/12/30 01:58:15;;;;;;;;;;;7.50;99.90;;;;;;5087630;27;19931;-79
2023/12/30 02:00:42;;;;;;;;;;;7.50;99.90;;;;;;5088683;27;19927;-80
2023/12/30 02:03:08;;;;;;;;;;;7.50;99.90;;;;;;5110447;27;19923;-78
2023/12/30 02:05:34;;;;;;;;;;;7.50;99.90;;;;;;5102865;27;20788;-81
2023/12/30 02:08:00;;;;;;;;;;;7.50;99.90;;;;;;5100853;27;20409;-78
2023/12/30 02:10:26;;;;;;;;;;;7.60;99.90;;;;;;5107821;27;20018;-80
2023/12/30 02:12:52;;;;;;;;;;;7.50;99.90;;;;;;5105645;27;19948;-80
2023/12/30 02:15:18;;;;;;;;;;;7.60;99.90;;;;;;5106668;27;19927;-80
2023/12/30 02:17:44;;;;;;;;;;;7.60;99.90;;;;;;5101065;27;22922;-79
2023/12/30 02:20:10;;;;;;;;;;;7.50;99.90;;;;;;5090195;27;19924;-81
2023/12/30 02:22:39;;;;;;;;;;;7.60;99.90;;;;;;5088264;27;19931;-79
2023/12/30 02:25:05;;;;;;;;;;;7.30;99.90;;;;;;5094794;27;19978;-81
2023/12/30 02:27:31;;;;;;;;;;;7.60;99.90;;;;;;5108148;27;20365;-80
2023/12/30 02:29:56;;;;;;;;;;;7.50;99.90;;;;;;5080246;27;20014;-80
2023/12/30 02:32:22;;;;;;;;;;;7.50;99.90;;;;;;5104569;27;19927;-80
2023/12/30 02:34:47;;;;;;;;;;;7.40;99.90;;;;;;5108113;27;19987;-81
2023/12/30 02:37:13;;;;;;;;;;;7.40;99.90;;;;;;5104154;27;19985;-79
2023/12/30 02:39:39;;;;;;;;;;;7.40;99.90;;;;;;5098721;27;19950;-82
2023/12/30 02:42:04;;;;;;;;;;;7.40;99.90;;;;;;5102874;27;19949;-82
2023/12/30 02:44:30;;;;;;;;;;;7.40;99.90;;;;;;5097043;27;20042;-81
2023/12/30 02:46:56;;;;;;;;;;;7.40;99.90;;;;;;5105547;27;19935;-81
2023/12/30 02:49:21;;;;;;;;;;;7.50;99.90;;;;;;5108376;27;19939;-79
2023/12/30 02:51:47;;;;;;;;;;;7.50;99.90;;;;;;5095658;27;19999;-81
2023/12/30 02:54:13;;;;;;;;;;;7.50;99.90;;;;;;5105727;27;19977;-83
2023/12/30 02:56:38;;;;;;;;;;;7.50;99.90;;;;;;5098864;27;20358;-80
2023/12/30 02:59:04;;;;;;;;;;;7.50;99.90;;;;;;5095837;27;19934;-81
2023/12/30 03:01:30;;;;;;;;;;;7.50;99.90;;;;;;5088553;27;19930;-79
2023/12/30 03:03:57;;;;;;;;;;;7.50;99.90;;;;;;5105131;27;19931;-80
2023/12/30 03:06:23;;;;;;;;;;;7.50;99.90;;;;;;5103332;27;20007;-82
2023/12/30 03:08:49;;;;;;;;;;;7.50;99.90;;;;;;5091720;27;19923;-81
2023/12/30 03:11:15;;;;;;;;;;;7.50;99.90;;;;;;5085587;27;20396;-82
2023/12/30 03:13:40;;;;;;;;;;;7.50;99.90;;;;;;5104112;27;19931;-81
2023/12/30 03:16:06;;;;;;;;;;;7.40;99.90;;;;;;5093786;27;19927;-79
2023/12/30 03:18:32;;;;;;;;;;;7.40;99.90;;;;;;5108700;27;20034;-81
2023/12/30 03:20:58;;;;;;;;;;;7.40;99.90;;;;;;5103253;27;20389;-80
2023/12/30 03:23:24;;;;;;;;;;;7.40;99.90;;;;;;5085643;27;19934;-80
2023/12/30 03:25:53;;;;;;;;;;;7.40;99.90;;;;;;5103139;27;20336;-80
2023/12/30 03:28:18;;;;;;;;;;;7.40;99.90;;;;;;5108258;27;19924;-82
2023/12/30 03:30:45;;;;;;;;;;;7.40;99.90;;;;;;5108056;27;20332;-79
2023/12/30 03:33:10;;;;;;;;;;;7.30;99.90;;;;;;5106168;27;19923;-81
2023/12/30 03:35:37;;;;;;;;;;;7.40;99.90;;;;;;5088587;27;19975;-80
2023/12/30 03:38:03;;;;;;;;;;;7.30;99.90;;;;;;5107250;27;20395;-80
2023/12/30 03:40:28;;;;;;;;;;;7.40;99.90;;;;;;5083014;27;19923;-82
2023/12/30 03:42:54;;;;;;;;;;;7.30;99.90;;;;;;5089793;27;19928;-80
2023/12/30 03:45:19;;;;;;;;;;;7.30;99.90;;;;;;5092390;27;19923;-81
2023/12/30 03:47:45;;;;;;;;;;;7.30;99.90;;;;;;5070801;27;19927;-79
2023/12/30 03:50:11;;;;;;;;;;;7.30;99.90;;;;;;5103297;27;20393;-79
2023/12/30 03:52:37;;;;;;;;;;;7.30;99.90;;;;;;5091530;27;19933;-79
2023/12/30 03:55:03;;;;;;;;;;;7.60;99.90;;;;;;5084021;27;20452;-82
2023/12/30 03:57:28;;;;;;;;;;;7.30;99.90;;;;;;5106891;27;19954;-81
2023/12/30 03:59:54;;;;;;;;;;;7.30;99.90;;;;;;5094186;27;22310;-81
2023/12/30 04:02:21;;;;;;;;;;;7.30;99.90;;;;;;5094018;27;19923;-81
2023/12/30 04:04:46;;;;;;;;;;;7.30;99.90;;;;;;5105779;27;19927;-81
2023/12/30 04:07:12;;;;;;;;;;;7.30;99.90;;;;;;5109715;27;19923;-81
2023/12/30 04:09:38;;;;;;;;;;;7.30;99.90;;;;;;5100037;27;19938;-80
2023/12/30 04:12:04;;;;;;;;;;;7.30;99.90;;;;;;5090511;27;20529;-79
2023/12/30 04:14:29;;;;;;;;;;;7.30;99.90;;;;;;5085808;27;19923;-79
2023/12/30 04:16:55;;;;;;;;;;;7.40;99.90;;;;;;5104327;27;19927;-80
2023/12/30 04:19:20;;;;;;;;;;;7.30;99.90;;;;;;5101150;27;19932;-79
2023/12/30 04:21:46;;;;;;;;;;;7.40;99.90;;;;;;5119552;27;20532;-78
2023/12/30 04:24:12;;;;;;;;;;;7.40;99.90;;;;;;5075676;27;19931;-79
2023/12/30 04:26:37;;;;;;;;;;;7.40;99.90;;;;;;5095728;27;19976;-80
2023/12/30 04:29:03;;;;;;;;;;;7.40;99.90;;;;;;5080986;27;20425;-78
2023/12/30 04:31:28;;;;;;;;;;;7.40;99.90;;;;;;5094173;27;19941;-81
2023/12/30 04:33:54;;;;;;;;;;;7.40;99.90;;;;;;5107646;27;19930;-79
2023/12/30 04:36:20;;;;;;;;;;;7.40;99.90;;;;;;5103461;27;19927;-81
2023/12/30 04:38:45;;;;;;;;;;;7.40;99.90;;;;;;5093397;27;19923;-81
2023/12/30 04:41:11;;;;;;;;;;;7.30;99.90;;;;;;5090009;27;19939;-80
2023/12/30 04:43:36;;;;;;;;;;;7.30;99.90;;;;;;5089702;27;19976;-80
2023/12/30 04:46:09;;;;;;;;;;;7.30;99.90;;;;;;5107665;27;20362;-81
2023/12/30 04:48:34;;;;;;;;;;;7.30;99.90;;;;;;5089402;27;19934;-79
2023/12/30 04:51:00;;;;;;;;;;;7.40;99.90;;;;;;5100217;27;20277;-81
2023/12/30 04:53:25;;;;;;;;;;;7.40;99.90;;;;;;5090975;27;19923;-81
2023/12/30 04:55:51;;;;;;;;;;;7.30;99.90;;;;;;5091870;27;19927;-79
2023/12/30 04:58:17;;;;;;;;;;;7.40;99.90;;;;;;5105765;27;19978;-81
2023/12/30 05:00:43;;;;;;;;;;;7.40;99.90;;;;;;5108443;27;19956;-82
2023/12/30 05:03:08;;;;;;;;;;;7.40;99.90;;;;;;5099944;27;19976;-81
2023/12/30 05:05:34;;;;;;;;;;;7.30;99.90;;;;;;5104503;27;19927;-82
2023/12/30 05:08:01;;;;;;;;;;;7.30;99.90;;;;;;5098977;27;19933;-81
2023/12/30 05:10:26;;;;;;;;;;;7.30;99.90;;;;;;5109009;27;20739;-81
2023/12/30 05:12:52;;;;;;;;;;;7.40;99.90;;;;;;5110986;27;19942;-79
2023/12/30 05:15:17;;;;;;;;;;;7.40;99.90;;;;;;5105325;27;19924;-81
2023/12/30 05:17:43;;;;;;;;;;;7.10;99.90;;;;;;5108608;27;20247;-81
2023/12/30 05:20:10;;;;;;;;;;;7.40;99.90;;;;;;5089117;27;19923;-82
2023/12/30 05:22:36;;;;;;;;;;;7.40;99.90;;;;;;5109422;27;20369;-80
2023/12/30 05:25:01;;;;;;;;;;;7.30;99.90;;;;;;5110094;27;19969;-79
2023/12/30 05:27:27;;;;;;;;;;;7.40;99.90;;;;;;5098250;27;19923;-80
2023/12/30 05:29:52;;;;;;;;;;;7.40;99.90;;;;;;5107298;27;19927;-81
2023/12/30 05:32:18;;;;;;;;;;;7.40;99.90;;;;;;5101692;27;20378;-79
2023/12/30 05:34:44;;;;;;;;;;;7.40;99.90;;;;;;5103228;27;19989;-79
2023/12/30 05:37:10;;;;;;;;;;;7.40;99.90;;;;;;5103629;27;19935;-81
2023/12/30 05:39:36;;;;;;;;;;;7.40;99.90;;;;;;5110173;27;20104;-80
2023/12/30 05:42:02;;;;;;;;;;;7.40;99.90;;;;;;5093824;27;20008;-80
2023/12/30 05:44:28;;;;;;;;;;;7.40;99.90;;;;;;5096527;27;20043;-80
2023/12/30 05:46:53;;;;;;;;;;;7.40;99.90;;;;;;5110796;27;19935;-79
2023/12/30 05:49:19;;;;;;;;;;;7.40;99.90;;;;;;5097705;27;20001;-81
2023/12/30 05:51:45;;;;;;;;;;;7.40;99.90;;;;;;5106972;27;20285;-80
2023/12/30 05:54:13;;;;;;;;;;;7.40;99.90;;;;;;5105462;27;19963;-79
2023/12/30 05:56:39;;;;;;;;;;;7.40;99.90;;;;;;5105951;27;20052;-80
2023/12/30 05:59:05;;;;;;;;;;;7.40;99.90;;;;;;5092427;27;20372;-81
2023/12/30 06:01:30;;;;;;;;;;;7.40;99.90;;;;;;5088801;27;19934;-80
2023/12/30 06:03:58;;;;;;;;;;;7.40;99.90;;;;;;5088470;27;20252;-81
2023/12/30 06:06:23;;;;;;;;;;;7.30;99.90;;;;;;5095492;27;20018;-80
2023/12/30 06:08:49;;;;;;;;;;;7.40;99.90;;;;;;5099851;27;19930;-80
2023/12/30 06:11:15;;;;;;;;;;;7.30;99.90;;;;;;5107465;27;19927;-80
2023/12/30 06:13:41;;;;;;;;;;;7.40;99.90;;;;;;5127538;27;19923;-81
2023/12/30 06:16:10;;;;;;;;;;;7.30;99.90;;;;;;5111038;27;19967;-79
2023/12/30 06:18:36;;;;;;;;;;;7.30;99.90;;;;;;5098432;27;19949;-81
2023/12/30 06:21:04;;;;;;;;;;;7.30;99.90;;;;;;5111702;27;19934;-81
2023/12/30 06:23:31;;;;;;;;;;;7.30;99.90;;;;;;5100614;27;20017;-81
2023/12/30 06:25:56;;;;;;;;;;;7.30;99.90;;;;;;5123398;27;19931;-83
2023/12/30 06:28:26;;;;;;;;;;;7.30;99.90;;;;;;5107472;27;19933;-81
2023/12/30 06:30:52;;;;;;;;;;;7.20;99.90;;;;;;5101200;27;19931;-80
2023/12/30 06:33:18;;;;;;;;;;;7.20;99.90;;;;;;5081240;27;19928;-80
2023/12/30 06:35:43;;;;;;;;;;;7.10;99.90;;;;;;5107759;27;19955;-80
2023/12/30 06:38:09;;;;;;;;;;;7.10;99.90;;;;;;5092212;27;19923;-82
2023/12/30 06:40:35;;;;;;;;;;;7.10;99.90;;;;;;5106004;27;19939;-82
2023/12/30 06:43:00;;;;;;;;;;;7.10;99.90;;;;;;5100540;27;20251;-82
2023/12/30 06:45:26;;;;;;;;;;;7.10;99.90;;;;;;5105460;27;19976;-81
2023/12/30 06:47:53;;;;;;;;;;;7.10;99.90;;;;;;5102478;27;19931;-81
2023/12/30 06:50:20;;;;;;;;;;;7.10;99.90;;;;;;5107213;27;19931;-81
2023/12/30 06:52:46;;;;;;;;;;;7.10;99.90;;;;;;5092832;27;19928;-82
2023/12/30 06:55:14;;;;;;;;;;;7.10;99.90;;;;;;5106179;27;20021;-80
2023/12/30 06:57:41;;;;;;;;;;;7.10;99.90;;;;;;5106103;27;20433;-81
2023/12/30 07:00:07;;;;;;;;;;;7.10;99.90;;;;;;5107636;27;19935;-80
2023/12/30 07:02:33;;;;;;;;;;;7.10;99.90;;;;;;5097351;27;19931;-80
2023/12/30 07:04:59;;;;;;;;;;;7.10;99.90;;;;;;5111368;27;19927;-79
2023/12/30 07:07:25;;;;;;;;;;;7.10;99.90;;;;;;5092860;27;20258;-82
2023/12/30 07:09:50;;;;;;;;;;;7.10;99.90;;;;;;5103951;27;19927;-81
2023/12/30 07:12:16;;;;;;;;;;;7.10;99.90;;;;;;5106526;27;19945;-82
2023/12/30 07:14:42;;;;;;;;;;;7.10;99.90;;;;;;5090720;27;19927;-79
2023/12/30 07:17:08;;;;;;;;;;;7.10;99.90;;;;;;5104668;27;19958;-79
2023/12/30 07:19:34;;;;;;;;;;;7.10;99.90;;;;;;5097344;27;19927;-80
2023/12/30 07:21:59;;;;;;;;;;;7.10;99.90;;;;;;5096530;27;20354;-79
2023/12/30 07:24:25;;;;;;;;;;;7.00;99.90;;;;;;5099968;27;19928;-79
2023/12/30 07:26:51;;;;;;;;;;;7.00;99.90;;;;;;5090113;27;19947;-80
2023/12/30 07:29:16;;;;;;;;;;;7.00;99.90;;;;;;5100671;27;19959;-80
2023/12/30 07:31:42;;;;;;;;;;;7.00;99.90;;;;;;5083618;27;19931;-79
2023/12/30 07:34:08;;;;;;;;;;;7.00;99.90;;;;;;5090496;27;19935;-80
2023/12/30 07:36:37;;;;;;;;;;;7.00;99.90;;;;;;5108513;27;19931;-79
2023/12/30 07:39:03;;;;;;;;;;;6.90;99.90;;;;;;5100936;27;20019;-81
2023/12/30 07:41:28;;;;;;;;;;;7.00;99.90;;;;;;5080327;27;20057;-78
2023/12/30 07:43:54;;;;;;;;;;;7.00;99.90;;;;;;5081159;27;20362;-80
2023/12/30 07:46:21;;;;;;;;;;;7.00;99.90;;;;;;5109350;27;20334;-80
2023/12/30 07:48:46;;;;;;;;;;;7.00;99.90;;;;;;5101003;27;19954;-81
2023/12/30 07:51:12;;;;;;;;;;;7.00;99.90;;;;;;5102600;27;19931;-81
2023/12/30 07:53:38;;;;;;;;;;;7.00;99.90;;;;;;5098098;27;20810;-79
2023/12/30 07:56:04;;;;;;;;;;;7.00;99.90;;;;;;5098766;27;20532;-81
2023/12/30 07:58:29;;;;;;;;;;;7.00;99.90;;;;;;5102266;27;20373;-79
2023/12/30 08:00:55;;;;;;;;;;;7.10;99.90;;;;;;5091602;27;19950;-81
2023/12/30 08:03:21;;;;;;;;;;;7.10;99.90;;;;;;5102791;27;19927;-81
2023/12/30 08:05:46;;;;;;;;;;;7.10;99.90;;;;;;5104441;27;19927;-81
2023/12/30 08:08:15;;;;;;;;;;;7.10;99.90;;;;;;5105864;27;20080;-81
2023/12/30 08:10:40;;;;;;;;;;;7.10;99.90;;;;;;5097401;27;19924;-80
2023/12/30 08:13:06;;;;;;;;;;;7.20;99.90;;;;;;5094058;27;20391;-80
2023/12/30 08:15:32;;;;;;;;;;;7.20;99.90;;;;;;5072132;27;19928;-80
2023/12/30 08:17:57;;;;;;;;;;;7.20;99.90;;;;;;5114540;27;19954;-81
2023/12/30 08:20:23;;;;;;;;;;;7.20;99.90;;;;;;5105501;27;19931;-80
2023/12/30 08:22:50;;;;;;;;;;;7.30;99.90;;;;;;5088273;27;19932;-79
2023/12/30 08:25:15;;;;;;;;;;;7.30;99.90;;;;;;5095175;27;19931;-80
2023/12/30 08:27:41;;;;;;;;;;;7.30;99.90;;;;;;5102718;27;19955;-81
2023/12/30 08:30:07;;;;;;;;;;;7.40;99.90;;;;;;5123195;27;19994;-79
2023/12/30 08:32:33;;;;;;;;;;;7.30;99.90;;;;;;5078194;27;20062;-81
2023/12/30 08:35:00;;;;;;;;;;;7.30;99.90;;;;;;5096891;27;20358;-81
2023/12/30 08:37:25;;;;;;;;;;;7.30;99.90;;;;;;5092264;27;19934;-81
2023/12/30 08:39:51;;;;;;;;;;;7.30;99.90;;;;;;5098169;27;19927;-78
2023/12/30 08:42:16;;;;;;;;;;;7.60;99.90;;;;;;5108132;27;19976;-81
2023/12/30 08:44:45;;;;;;;;;;;7.30;99.90;;;;;;5089659;27;20575;-81
2023/12/30 08:47:11;;;;;;;;;;;7.30;99.90;;;;;;5099056;27;19927;-81
2023/12/30 08:49:36;;;;;;;;;;;7.40;99.90;;;;;;5086088;27;19933;-80
2023/12/30 08:52:02;;;;;;;;;;;7.40;99.90;;;;;;5106027;27;20898;-81
2023/12/30 08:54:29;;;;;;;;;;;7.40;99.90;;;;;;5089216;27;19935;-80
2023/12/30 08:56:54;;;;;;;;;;;7.40;99.90;;;;;;5111323;27;19931;-80
2023/12/30 08:59:21;;;;;;;;;;;7.40;99.90;;;;;;5106815;27;19938;-80
2023/12/30 09:01:47;;;;;;;;;;;7.40;99.90;;;;;;5101328;27;19935;-80
2023/12/30 09:04:13;;;;;;;;;;;7.50;99.90;;;;;;5065749;27;20041;-80
2023/12/30 09:06:38;;;;;;;;;;;7.50;99.90;;;;;;5102191;27;20322;-81
2023/12/30 09:09:04;;;;;;;;;;;7.50;99.90;;;;;;5088252;27;19927;-80
2023/12/30 09:11:32;;;;;;;;;;;7.50;99.90;;;;;;5099521;27;19928;-82
2023/12/30 09:13:59;;;;;;;;;;;7.60;99.90;;;;;;5107007;27;19932;-80
2023/12/30 09:16:25;;;;;;;;;;;7.50;99.90;;;;;;5098513;27;19931;-81
2023/12/30 09:18:50;;;;;;;;;;;7.60;99.90;;;;;;5097305;27;19926;-81
2023/12/30 09:21:16;;;;;;;;;;;7.60;99.90;;;;;;5119466;27;19934;-80
2023/12/30 09:23:43;;;;;;;;;;;7.60;99.90;;;;;;5108727;27;19938;-81
2023/12/30 09:26:08;;;;;;;;;;;7.60;99.90;;;;;;5108922;27;20018;-80
2023/12/30 09:28:34;;;;;;;;;;;7.60;99.90;;;;;;5099784;27;20285;-81
2023/12/30 09:31:00;;;;;;;;;;;7.60;99.90;;;;;;5086247;27;19928;-80
2023/12/30 09:33:26;;;;;;;;;;;7.60;99.90;;;;;;5108381;27;19928;-80
2023/12/30 09:35:54;;;;;;;;;;;7.70;99.90;;;;;;5120269;27;20468;-79
2023/12/30 09:38:23;;;;;;;;;;;7.70;99.90;;;;;;5089311;27;19923;-80
2023/12/30 09:40:50;;;;;;;;;;;7.70;99.90;;;;;;5105877;27;20456;-80
2023/12/30 09:43:18;;;;;;;;;;;7.80;99.90;;;;;;5094855;27;20018;-80
2023/12/30 09:45:44;;;;;;;;;;;7.80;99.90;;;;;;5108299;27;20059;-80
2023/12/30 09:48:10;;;;;;;;;;;7.80;99.90;;;;;;5093337;27;19931;-80
2023/12/30 09:50:35;;;;;;;;;;;7.90;99.90;;;;;;5086897;27;19923;-81
2023/12/30 09:53:01;;;;;;;;;;;7.90;99.90;;;;;;5105708;27;20819;-80
2023/12/30 09:55:27;;;;;;;;;;;7.90;99.90;;;;;;5085830;27;19927;-80
2023/12/30 09:57:52;;;;;;;;;;;7.90;99.90;;;;;;5086243;27;19941;-79
2023/12/30 10:00:18;;;;;;;;;;;9.30;99.90;;;;;;5096476;27;19927;-80
2023/12/30 10:02:44;;;;;;;;;;;8.00;99.90;;;;;;5110204;27;19928;-79
2023/12/30 10:05:10;;;;;;;;;;;8.20;99.90;;;;;;5109226;27;20396;-79
2023/12/30 10:07:35;;;;;;;;;;;8.30;99.90;;;;;;5106078;27;19923;-80
2023/12/30 10:10:01;;;;;;;;;;;8.50;99.90;;;;;;5091001;27;19991;-79
2023/12/30 10:12:27;;;;;;;;;;;8.80;99.90;;;;;;5090992;27;20088;-81
2023/12/30 10:14:53;;;;;;;;;;;9.00;99.90;;;;;;5090623;27;19927;-79
2023/12/30 10:17:18;;;;;;;;;;;9.00;99.90;;;;;;5083556;27;19967;-82
2023/12/30 10:19:45;;;;;;;;;;;9.00;99.90;;;;;;5095571;27;20048;-80
2023/12/30 10:22:11;;;;;;;;;;;8.90;99.90;;;;;;5099020;27;19927;-80
2023/12/30 10:24:37;;;;;;;;;;;8.80;99.90;;;;;;5102624;27;20701;-80
2023/12/30 10:27:04;;;;;;;;;;;8.70;99.90;;;;;;5083445;27;19927;-80
2023/12/30 10:29:30;;;;;;;;;;;8.60;99.90;;;;;;5086020;27;20095;-81
2023/12/30 10:32:00;;;;;;;;;;;8.60;99.90;;;;;;5087712;27;19931;-80
2023/12/30 10:34:27;;;;;;;;;;;8.50;99.90;;;;;;5106913;27;19927;-81
2023/12/30 10:36:53;;;;;;;;;;;8.50;99.90;;;;;;5086685;27;20015;-79
2023/12/30 10:39:21;;;;;;;;;;;8.40;99.90;;;;;;5088919;27;19931;-78
2023/12/30 10:41:47;;;;;;;;;;;8.40;99.90;;;;;;5095194;27;19923;-81
2023/12/30 10:44:12;;;;;;;;;;;8.40;99.90;;;;;;5100089;27;20023;-80
2023/12/30 10:46:38;;;;;;;;;;;8.30;99.90;;;;;;5084412;27;19928;-78
2023/12/30 10:49:04;;;;;;;;;;;8.30;99.90;;;;;;5088205;27;19962;-81
2023/12/30 10:51:33;;;;;;;;;;;8.30;99.90;;;;;;5108227;27;20394;-81
2023/12/30 10:54:06;;;;;;;;;;;8.30;99.90;;;;;;5093284;27;19927;-80
2023/12/30 10:56:43;;;;;;;;;;;8.30;99.90;;;;;;5102624;27;19927;-82
2023/12/30 10:59:10;;;;;;;;;;;8.40;99.90;;;;;;5099644;27;20059;-80
2023/12/30 11:01:37;;;;;;;;;;;8.50;99.90;;;;;;5103143;27;20278;-80
2023/12/30 11:04:12;;;;;;;;;;;8.50;99.90;;;;;;5106156;27;20453;-80
2023/12/30 11:06:37;;;;;;;;;;;9.10;99.90;;;;;;5097167;27;19948;-81
2023/12/30 11:09:09;;;;;;;;;;;8.50;99.90;;;;;;5110135;27;20400;-80
2023/12/30 11:11:39;;;;;;;;;;;8.50;99.90;;;;;;5103218;27;19927;-81
2023/12/30 11:14:10;;;;;;;;;;;8.40;99.90;;;;;;5106578;27;19939;-81
2023/12/30 11:16:36;;;;;;;;;;;8.40;99.90;;;;;;5103330;27;19953;-81
2023/12/30 11:19:04;;;;;;;;;;;8.30;99.90;;;;;;5092446;27;19923;-80
2023/12/30 11:21:40;;;;;;;;;;;8.30;99.90;;;;;;5085788;27;19931;-79
2023/12/30 11:24:09;;;;;;;;;;;8.40;99.90;;;;;;5104294;27;20400;-80
2023/12/30 11:26:37;;;;;;;;;;;8.40;99.90;;;;;;5102211;27;19931;-79
2023/12/30 11:29:03;;;;;;;;;;;8.40;99.90;;;;;;5095542;27;19931;-79
2023/12/30 11:31:36;;;;;;;;;;;8.40;99.90;;;;;;5103933;27;20003;-79
2023/12/30 11:34:01;;;;;;;;;;;8.40;99.90;;;;;;5094005;27;20377;-80
2023/12/30 11:36:30;;;;;;;;;;;8.40;99.90;;;;;;5105816;27;22844;-78
2023/12/30 11:38:56;;;;;;;;;;;8.40;99.90;;;;;;5089731;27;19927;-79
2023/12/30 11:41:22;;;;;;;;;;;8.40;99.90;;;;;;5107268;27;20401;-81
2023/12/30 11:43:48;;;;;;;;;;;8.50;99.90;;;;;;5090056;27;19955;-80
2023/12/30 11:46:14;;;;;;;;;;;8.50;99.90;;;;;;5108366;27;20045;-79
2023/12/30 11:48:43;;;;;;;;;;;8.60;99.90;;;;;;5107142;27;20203;-80
2023/12/30 11:51:09;;;;;;;;;;;8.60;99.90;;;;;;5108907;27;19963;-79
2023/12/30 11:53:35;;;;;;;;;;;8.60;99.90;;;;;;5099000;27;20698;-81
2023/12/30 11:56:01;;;;;;;;;;;8.60;99.90;;;;;;5106817;27;19935;-81
2023/12/30 11:58:28;;;;;;;;;;;8.60;99.90;;;;;;5103636;27;19980;-81
2023/12/30 12:00:54;;;;;;;;;;;8.60;99.90;;;;;;5105523;27;19957;-80
2023/12/30 12:03:20;;;;;;;;;;;8.60;99.90;;;;;;5107127;27;19954;-80
2023/12/30 12:05:46;;;;;;;;;;;8.60;99.90;;;;;;5106831;27;19947;-81
2023/12/30 12:08:11;;;;;;;;;;;8.70;99.90;;;;;;5108422;27;20354;-81
2023/12/30 12:10:37;;;;;;;;;;;8.70;99.90;;;;;;5106124;27;19931;-80
2023/12/30 12:13:06;;;;;;;;;;;8.80;99.90;;;;;;5107428;27;19932;-81
2023/12/30 12:15:32;;;;;;;;;;;8.80;99.90;;;;;;5095219;27;19923;-81
2023/12/30 12:17:58;;;;;;;;;;;8.60;99.90;;;;;;5115331;27;19943;-81
2023/12/30 12:20:26;;;;;;;;;;;8.70;99.90;;;;;;5118945;27;20162;-81
2023/12/30 12:22:55;;;;;;;;;;;8.70;99.90;;;;;;5098379;27;19966;-81
2023/12/30 12:25:23;;;;;;;;;;;8.70;99.90;;;;;;5116864;27;21767;-77
2023/12/30 12:27:49;;;;;;;;;;;8.70;99.90;;;;;;5125557;27;19931;-80
2023/12/30 12:30:15;;;;;;;;;;;8.60;99.90;;;;;;5106112;27;20483;-81
2023/12/30 12:32:41;;;;;;;;;;;8.60;99.90;;;;;;5106969;27;19977;-82
2023/12/30 12:35:07;;;;;;;;;;;8.60;99.90;;;;;;5106639;27;20339;-80
2023/12/30 12:37:33;;;;;;;;;;;8.60;99.90;;;;;;5088045;27;19931;-80
2023/12/30 12:39:59;;;;;;;;;;;8.60;99.90;;;;;;5095556;27;19927;-81
2023/12/30 12:42:27;;;;;;;;;;;8.60;99.90;;;;;;5102265;27;19931;-81
2023/12/30 12:44:53;;;;;;;;;;;8.60;99.90;;;;;;5101803;27;19942;-80
2023/12/30 12:47:18;;;;;;;;;;;8.60;99.90;;;;;;5123972;27;19927;-81
2023/12/30 12:49:44;;;;;;;;;;;8.60;99.90;;;;;;5090974;27;20390;-80
2023/12/30 12:52:10;;;;;;;;;;;8.60;99.90;;;;;;5109674;27;20010;-81
2023/12/30 12:54:36;;;;;;;;;;;8.60;99.90;;;;;;5112550;27;20491;-81
2023/12/30 12:57:02;;;;;;;;;;;8.60;99.90;;;;;;5118718;27;19931;-81
2023/12/30 12:59:28;;;;;;;;;;;8.60;99.90;;;;;;5114726;27;19934;-81
2023/12/30 13:01:54;;;;;;;;;;;8.60;99.90;;;;;;5109088;27;19985;-80
2023/12/30 13:04:21;;;;;;;;;;;8.70;99.90;;;;;;5078449;27;19995;-81
2023/12/30 13:06:47;;;;;;;;;;;8.70;99.90;;;;;;5090654;27;19990;-80
2023/12/30 13:11:59;;;;;;;;;;;8.70;99.90;;;;;;5111407;27;19927;-80
2023/12/30 13:14:26;;;;;;;;;;;8.70;99.90;;;;;;5096181;27;19928;-80
2023/12/30 13:16:53;;;;;;;;;;;8.70;99.90;;;;;;5097782;27;19927;-81
2023/12/30 13:19:18;;;;;;;;;;;8.80;99.90;;;;;;5108300;27;19926;-81
2023/12/30 13:21:46;;;;;;;;;;;8.80;99.90;;;;;;5111049;27;19939;-79
2023/12/30 13:24:13;;;;;;;;;;;8.80;99.90;;;;;;5108637;27;19954;-81
2023/12/30 13:26:39;;;;;;;;;;;8.80;99.90;;;;;;5105306;27;19931;-81
2023/12/30 13:29:05;;;;;;;;;;;8.80;99.90;;;;;;5096661;27;20416;-79
2023/12/30 13:31:33;;;;;;;;;;;8.80;99.90;;;;;;5107634;27;20041;-80
2023/12/30 13:33:59;;;;;;;;;;;8.80;99.90;;;;;;5096980;27;20377;-82
2023/12/30 13:36:25;;;;;;;;;;;8.80;99.90;;;;;;5107845;27;20026;-81
2023/12/30 13:39:05;;;;;;;;;;;8.80;99.90;;;;;;5107275;27;19966;-79
2023/12/30 13:41:37;;;;;;;;;;;8.70;99.90;;;;;;5092317;27;20054;-80
2023/12/30 13:44:04;;;;;;;;;;;8.70;99.90;;;;;;5109179;27;20045;-79
2023/12/30 13:51:48;;;;;;;;;;;8.70;99.90;;;;;;5102933;27;19928;-80
2023/12/30 13:54:20;;;;;;;;;;;8.70;99.90;;;;;;5099315;27;19934;-80
2023/12/30 13:56:49;;;;;;;;;;;8.60;99.90;;;;;;5075608;27;19988;-80
2023/12/30 13:59:15;;;;;;;;;;;8.60;99.90;;;;;;5104802;27;19927;-82
2023/12/30 14:01:40;;;;;;;;;;;8.60;99.90;;;;;;5102409;27;19930;-80
2023/12/30 14:04:07;;;;;;;;;;;8.60;99.90;;;;;;5106269;27;19984;-81
2023/12/30 14:06:37;;;;;;;;;;;8.60;99.90;;;;;;5106740;27;19940;-79
2023/12/30 14:09:19;;;;;;;;;;;8.60;99.90;;;;;;5105874;27;19930;-81
2023/12/30 14:11:47;;;;;;;;;;;8.60;99.90;;;;;;5106224;27;20010;-80
2023/12/30 14:14:13;;;;;;;;;;;8.50;99.90;;;;;;5103802;27;20135;-80
2023/12/30 14:16:38;;;;;;;;;;;8.60;99.90;;;;;;5107261;27;20277;-79
2023/12/30 14:19:07;;;;;;;;;;;8.50;99.90;;;;;;5113820;27;20441;-81
2023/12/30 14:21:33;;;;;;;;;;;8.50;99.90;;;;;;5072923;27;20192;-80
2023/12/30 14:23:58;;;;;;;;;;;8.50;99.90;;;;;;5109635;27;19972;-80
2023/12/30 14:26:24;;;;;;;;;;;8.50;99.90;;;;;;5108403;27;19980;-79
2023/12/30 14:28:49;;;;;;;;;;;8.50;99.90;;;;;;5113154;27;19967;-80
2023/12/30 14:31:15;;;;;;;;;;;8.50;99.90;;;;;;5101682;27;19927;-79
2023/12/30 14:33:42;;;;;;;;;;;8.40;99.90;;;;;;5114098;27;20374;-81